WetterOnline ( https://www.wetteronline.de )

Wetter aktuell Scheuerfeld

Aktuelles Wetter: Bad Marienberg (555m)

6-stündlich | Neueste Meldungen
Ortszeit Temperatur Wetter
Sa, 28.11. 13:00 7.2° C wolkenlos
Sa, 28.11. 7:00 3.2° C wolkenlos
Sa, 28.11. 1:00 1.3° C wolkenlos
Fr, 27.11. 19:00 -0.8° C leicht bewölkt
Fr, 27.11. 13:00 1.7° C Nebel
Fr, 27.11. 7:00 -1.2° C Nebel
Fr, 27.11. 1:00 0.1° C fast wolkenlos
Do, 26.11. 19:00 -0.1° C Nebel
Ortszeit Temperatur Wetter
Sa, 28.11. 17:30 0.8° C fast wolkenlos
Sa, 28.11. 17:20 0.8° C fast wolkenlos
Sa, 28.11. 17:10 1.1° C wolkenlos
Sa, 28.11. 17:00 2.0° C leicht bewölkt
Sa, 28.11. 16:50 2.0° C leicht bewölkt
Sa, 28.11. 16:40 2.3° C leicht bewölkt
Sa, 28.11. 16:30 3.0° C leicht bewölkt
Sa, 28.11. 16:00 3.9° C leicht bewölkt
Sa, 28.11. 15:30 4.8° C wolkenlos
Sa, 28.11. 15:00 5.8° C wolkenlos
Sa, 28.11. 14:30 6.2° C wolkenlos
Ortszeit Relative Feuchte Sichtweite
Sa, 28.11. 13:00 69% 60 km
Sa, 28.11. 7:00 81% >70 km
Sa, 28.11. 1:00 94% 22 km
Fr, 27.11. 19:00 100% 1.8 km
Fr, 27.11. 13:00 100% 0.4 km
Fr, 27.11. 7:00 100% 100 m
Fr, 27.11. 1:00 100% 9 km
Do, 26.11. 19:00 100% 100 m
Ortszeit Relative Feuchte Sichtweite
Sa, 28.11. 17:30 92% 24 km
Sa, 28.11. 17:20 92% -
Sa, 28.11. 17:10 91% -
Sa, 28.11. 17:00 89% 35 km
Sa, 28.11. 16:50 89% -
Sa, 28.11. 16:40 88% -
Sa, 28.11. 16:30 85% 35 km
Sa, 28.11. 16:00 84% 50 km
Sa, 28.11. 15:30 80% 60 km
Sa, 28.11. 15:00 77% 50 km
Sa, 28.11. 14:30 74% 65 km
Ortszeit Niederschlagsmenge Niederschlagsart
Sa, 28.11. 13:00 0.0 l/m2 in 6 Std. -
Sa, 28.11. 7:00 0.0 l/m2 in 12 Std. -
Sa, 28.11. 1:00 0.0 l/m2 in 6 Std. -
Fr, 27.11. 19:00 0.0 l/m2 in 12 Std. -
Fr, 27.11. 13:00 0.0 l/m2 in 6 Std. -
Fr, 27.11. 7:00 0.0 l/m2 in 12 Std. -
Fr, 27.11. 1:00 0.0 l/m2 in 6 Std. -
Do, 26.11. 19:00 0.0 l/m2 in 12 Std. -
Ortszeit Niederschlagsmenge Niederschlagsart
Sa, 28.11. 17:30 0.0 l/m2 in 1 Std. -
Sa, 28.11. 17:20 keine Meldung -
Sa, 28.11. 17:10 keine Meldung -
Sa, 28.11. 17:00 0.0 l/m2 in 1 Std. -
Sa, 28.11. 16:50 keine Meldung -
Sa, 28.11. 16:40 keine Meldung -
Sa, 28.11. 16:30 0.0 l/m2 in 1 Std. -
Sa, 28.11. 16:00 0.0 l/m2 in 1 Std. -
Sa, 28.11. 15:30 0.0 l/m2 in 1 Std. -
Sa, 28.11. 15:00 0.0 l/m2 in 1 Std. -
Sa, 28.11. 14:30 0.0 l/m2 in 1 Std. -
Ortszeit Stärke Spitze Richtung
km/h Bft. km/h Grad Sektor
Sa, 28.11. 13:00 13 3 19 140° SO
Sa, 28.11. 7:00 4 1 18 140° SO
Sa, 28.11. 1:00 9 2 19 130° SO
Fr, 27.11. 19:00 7 2 14 130° SO
Fr, 27.11. 13:00 7 2 14 150° SO
Fr, 27.11. 7:00 7 2 13 160° S
Fr, 27.11. 1:00 7 2 14 140° SO
Do, 26.11. 19:00 11 2 14 150° SO
Ortszeit Stärke Spitze Richtung
km/h Bft. km/h Grad Sektor
Sa, 28.11. 17:30 7 2 14 110° O
Sa, 28.11. 17:20 7 2 - 110° O
Sa, 28.11. 17:10 9 2 - 110° O
Sa, 28.11. 17:00 7 2 18 120° SO
Sa, 28.11. 16:50 7 2 - 120° SO
Sa, 28.11. 16:40 9 2 - 120° SO
Sa, 28.11. 16:30 7 2 11 120° SO
Sa, 28.11. 16:00 7 2 22 150° SO
Sa, 28.11. 15:30 13 3 20 140° SO
Sa, 28.11. 15:00 9 2 17 150° SO
Sa, 28.11. 14:30 9 2 17 130° SO
Ortszeit Untergrenze Bedeckung Gattung
total tief tief mittel hoch
Sa, 28.11. 13:00 - 0/8 0/8 - - -
Sa, 28.11. 7:00 - 0/8 0/8 - - -
Sa, 28.11. 1:00 - 0/8 0/8 - - -
Fr, 27.11. 19:00 <30 m 3/8 0/8 - - -
Fr, 27.11. 13:00 <30 m 8/8 0/8 - - -
Fr, 27.11. 7:00 <30 m 8/8 0/8 - - -
Fr, 27.11. 1:00 990 m 1/8 1/8 - - -
Do, 26.11. 19:00 <30 m 8/8 0/8 - - -
Ortszeit Bedeckungsgrad in Achtel und Wolkenuntergrenze
Sa, 28.11. 17:30 2(9000m)
Sa, 28.11. 17:20 2(9000m)
Sa, 28.11. 17:10 keine Wolken
Sa, 28.11. 17:00 3(9000m)
Sa, 28.11. 16:50 3(9000m)
Sa, 28.11. 16:40 4(9000m)
Sa, 28.11. 16:30 4(9000m)
Sa, 28.11. 16:00 4(9000m)
Sa, 28.11. 15:30 keine Wolken
Sa, 28.11. 15:00 keine Wolken
Sa, 28.11. 14:30 keine Wolken
Ortszeit Luftdruck NN (hPa) Tendenz (hPa in 3 Std.)
Sa, 28.11. 13:00 1020 - 0,2
Sa, 28.11. 7:00 1021 + 0,2
Sa, 28.11. 1:00 1021 - 0,2
Fr, 27.11. 19:00 1022 + 0,2
Fr, 27.11. 13:00 1021 - 0,3
Fr, 27.11. 7:00 1022 - 0,2
Fr, 27.11. 1:00 1022 - 0,1
Do, 26.11. 19:00 1023 0,0
Ortszeit Luftdruck NN (hPa) Tendenz (hPa in 3 Std.)
Sa, 28.11. 17:30 1022 + 0,5
Sa, 28.11. 17:20 1022 keine Meldung
Sa, 28.11. 17:10 1022 keine Meldung
Sa, 28.11. 17:00 1022 + 0,4
Sa, 28.11. 16:50 1022 keine Meldung
Sa, 28.11. 16:40 1022 keine Meldung
Sa, 28.11. 16:30 1021 + 0,1
Sa, 28.11. 16:00 1021 0,0
Sa, 28.11. 15:30 1021 - 0,2
Sa, 28.11. 15:00 1020 - 0,4
Sa, 28.11. 14:30 1020 - 0,6
Ortszeit Schneehöhe (cm)
Sa, 28.11. 13:00 0
Sa, 28.11. 7:00 0
Sa, 28.11. 1:00 0
Fr, 27.11. 19:00 0
Fr, 27.11. 13:00 0
Fr, 27.11. 7:00 0
Fr, 27.11. 1:00 0
Do, 26.11. 19:00 0
Ortszeit Schneehöhe (cm)
Sa, 28.11. 17:30 0
Sa, 28.11. 17:20 0
Sa, 28.11. 17:10 0
Sa, 28.11. 17:00 0
Sa, 28.11. 16:50 0
Sa, 28.11. 16:40 0
Sa, 28.11. 16:30 0
Sa, 28.11. 16:00 0
Sa, 28.11. 15:30 0
Sa, 28.11. 15:00 0
Sa, 28.11. 14:30 0
Link zu dieser Seite / Seite empfehlen

Das Wetter in ...